Time;durP1;ratioP1;P1;durP2;ratioP2;P2;SDS_P1;SDS_P2;PMS_P1;PMS_P2;Temp;Humidity;BMP_temperature;BMP_pressure;BME280_temperature;BME280_humidity;BME280_pressure;Samples;Min_cycle;Max_cycle;Signal;HPM_P1;HPM_P2
2023/01/17 00:00:25;;;;;;;1.30;0.67;;;7.60;34.60;;;;;;10499075;28;20227;-81
2023/01/17 00:10:50;;;;;;;2.20;0.70;;;7.50;34.40;;;;;;10497463;28;20220;-81
2023/01/17 00:15:53;;;;;;;0.80;0.60;;;7.50;34.60;;;;;;10495005;28;20246;-81
2023/01/17 00:26:19;;;;;;;0.93;0.50;;;7.50;34.50;;;;;;10494356;28;20677;-81
2023/01/17 01:37:15;;;;;;;0.50;0.50;;;7.00;34.60;;;;;;10485543;28;20228;-81
2023/01/17 01:42:19;;;;;;;0.60;0.60;;;7.00;34.80;;;;;;10492272;28;20232;-81
2023/01/17 01:47:26;;;;;;;0.50;0.50;;;6.90;34.90;;;;;;10493221;28;20258;-80
2023/01/17 01:52:33;;;;;;;0.57;0.57;;;6.90;34.90;;;;;;10492291;28;20235;-80
2023/01/17 01:57:42;;;;;;;0.70;0.50;;;6.90;34.90;;;;;;10489030;28;20236;-81
2023/01/17 02:02:48;;;;;;;0.50;0.50;;;6.90;34.90;;;;;;10491330;28;20238;-81
2023/01/17 02:07:58;;;;;;;0.70;0.57;;;6.90;35.00;;;;;;10491759;28;20224;-81
2023/01/17 02:13:02;;;;;;;0.50;0.50;;;6.80;34.80;;;;;;10489833;28;20278;-81
2023/01/17 02:18:14;;;;;;;0.50;0.50;;;6.80;34.90;;;;;;10492886;28;20243;-81
2023/01/17 02:23:54;;;;;;;0.80;0.50;;;6.80;35.00;;;;;;10492564;28;20239;-81
2023/01/17 02:29:24;;;;;;;0.60;0.60;;;6.80;35.00;;;;;;10484178;28;20229;-81
2023/01/17 02:34:33;;;;;;;0.77;0.60;;;6.80;35.00;;;;;;10490620;28;20232;-80
2023/01/17 02:39:43;;;;;;;0.63;0.60;;;6.70;35.00;;;;;;10489665;28;20228;-81
2023/01/17 02:51:44;;;;;;;1.53;0.60;;;6.50;35.00;;;;;;10480276;28;20870;-81
2023/01/17 02:56:59;;;;;;;0.60;0.60;;;6.60;35.20;;;;;;10496028;28;20327;-81
2023/01/17 03:02:16;;;;;;;1.20;0.60;;;6.60;35.30;;;;;;10488499;28;20224;-81
2023/01/17 03:07:27;;;;;;;0.60;0.60;;;6.60;35.30;;;;;;10493056;28;20228;-81
2023/01/17 03:12:35;;;;;;;1.30;0.60;;;6.50;35.30;;;;;;10491498;28;20236;-80
2023/01/17 03:17:42;;;;;;;1.10;0.60;;;6.50;35.30;;;;;;10491160;28;20228;-81
2023/01/17 03:22:47;;;;;;;1.23;0.53;;;6.50;35.20;;;;;;10494498;28;20243;-80
2023/01/17 03:27:50;;;;;;;0.60;0.50;;;6.50;35.10;;;;;;10491150;28;20224;-80
2023/01/17 03:32:53;;;;;;;1.70;0.50;;;6.50;35.10;;;;;;10497366;28;20228;-80
2023/01/17 03:37:57;;;;;;;0.90;0.60;;;6.50;35.20;;;;;;10494292;28;20224;-81
2023/01/17 03:43:01;;;;;;;0.57;0.57;;;6.50;35.30;;;;;;10494560;28;20228;-81
2023/01/17 03:48:05;;;;;;;0.50;0.50;;;6.50;35.30;;;;;;10490931;28;20225;-81
2023/01/17 03:53:09;;;;;;;0.63;0.50;;;6.40;35.30;;;;;;10493764;28;20274;-80
2023/01/17 03:58:13;;;;;;;1.07;0.60;;;6.40;35.40;;;;;;10489150;28;21107;-80
2023/01/17 04:03:16;;;;;;;0.70;0.70;;;6.40;35.40;;;;;;10491827;28;20224;-80
2023/01/17 04:08:22;;;;;;;1.30;0.80;;;6.40;35.50;;;;;;10484636;28;20259;-80
2023/01/17 04:13:25;;;;;;;1.03;1.00;;;6.30;35.60;;;;;;10490415;28;20240;-80
2023/01/17 04:18:28;;;;;;;0.90;0.90;;;6.30;35.50;;;;;;10488468;28;20292;-81
2023/01/17 04:23:35;;;;;;;0.60;0.60;;;6.30;35.50;;;;;;10486138;28;20260;-81
2023/01/17 04:28:38;;;;;;;1.60;1.10;;;6.30;35.60;;;;;;10489920;28;20786;-81
2023/01/17 04:33:41;;;;;;;1.20;1.10;;;6.30;35.50;;;;;;10492930;28;20233;-81
2023/01/17 04:38:48;;;;;;;2.33;1.50;;;6.40;35.50;;;;;;10487721;28;20232;-81
2023/01/17 04:43:53;;;;;;;1.50;1.40;;;6.40;35.60;;;;;;10491452;28;20225;-81
2023/01/17 04:48:59;;;;;;;1.30;1.20;;;6.40;35.60;;;;;;10487852;28;20228;-81
2023/01/17 04:54:04;;;;;;;1.60;1.17;;;6.40;35.60;;;;;;10492764;28;20638;-81
2023/01/17 04:59:09;;;;;;;0.87;0.87;;;6.40;35.60;;;;;;10486166;28;20240;-81
2023/01/17 05:04:12;;;;;;;1.70;0.97;;;6.40;35.50;;;;;;10493712;28;20303;-81
2023/01/17 05:09:17;;;;;;;1.27;1.17;;;6.40;35.50;;;;;;10493304;28;20239;-81
2023/01/17 05:14:20;;;;;;;1.43;1.33;;;6.30;35.60;;;;;;10484678;28;20229;-81
2023/01/17 05:19:24;;;;;;;2.80;1.40;;;6.30;35.50;;;;;;10490363;28;20259;-81
2023/01/17 05:24:31;;;;;;;1.20;1.10;;;6.30;35.70;;;;;;10486307;28;20259;-80
2023/01/17 05:29:34;;;;;;;1.40;1.30;;;6.30;35.80;;;;;;10498082;28;20238;-81
2023/01/17 05:34:37;;;;;;;3.57;3.27;;;6.30;35.50;;;;;;10496409;28;20239;-82
2023/01/17 05:39:45;;;;;;;3.40;3.10;;;6.30;35.50;;;;;;10493423;28;20225;-80
2023/01/17 05:44:50;;;;;;;2.33;2.13;;;6.30;35.30;;;;;;10499368;28;20291;-80
2023/01/17 05:49:53;;;;;;;4.20;3.70;;;6.30;35.30;;;;;;10494727;28;20597;-78
2023/01/17 05:54:57;;;;;;;4.57;3.93;;;6.30;35.20;;;;;;10474154;28;20231;-79
2023/01/17 06:00:01;;;;;;;5.00;4.07;;;6.30;35.30;;;;;;10490542;28;20243;-78
2023/01/17 06:05:05;;;;;;;4.70;2.93;;;6.20;35.20;;;;;;10475733;28;20765;-79
2023/01/17 06:10:11;;;;;;;3.60;2.67;;;6.20;35.10;;;;;;10482918;28;20751;-78
2023/01/17 06:15:16;;;;;;;3.47;3.00;;;6.20;35.20;;;;;;10472237;28;20243;-78
2023/01/17 06:20:22;;;;;;;4.47;2.13;;;6.10;35.10;;;;;;10483420;28;20233;-78
2023/01/17 06:25:38;;;;;;;2.10;1.50;;;6.10;36.80;;;;;;10500623;28;20589;-79
2023/01/17 06:30:42;;;;;;;2.13;1.37;;;6.00;36.50;;;;;;10505949;28;20713;-79
2023/01/17 06:35:55;;;;;;;1.37;1.20;;;6.00;36.00;;;;;;10505587;28;20337;-79
2023/01/17 06:41:05;;;;;;;1.50;1.00;;;5.90;36.10;;;;;;10505387;28;20233;-78
2023/01/17 06:46:08;;;;;;;1.93;1.57;;;5.90;35.60;;;;;;10503800;28;20220;-78
2023/01/17 06:51:11;;;;;;;2.57;1.80;;;5.90;35.60;;;;;;10503666;28;20240;-78
2023/01/17 06:56:16;;;;;;;3.90;2.90;;;5.80;35.40;;;;;;10502834;28;20237;-78
2023/01/17 07:01:19;;;;;;;3.50;3.20;;;5.80;35.60;;;;;;10502101;28;20712;-81
2023/01/17 07:06:27;;;;;;;5.20;3.70;;;5.70;35.20;;;;;;10498985;28;20232;-79
2023/01/17 07:11:32;;;;;;;7.30;5.70;;;5.60;35.50;;;;;;10497139;28;20267;-79
2023/01/17 07:16:35;;;;;;;6.90;6.20;;;5.50;35.60;;;;;;10497242;28;20262;-78
2023/01/17 07:21:39;;;;;;;6.17;5.57;;;5.50;35.50;;;;;;10495968;28;20232;-78
2023/01/17 07:26:43;;;;;;;7.77;6.97;;;5.40;35.30;;;;;;10486302;28;20260;-78
2023/01/17 07:31:48;;;;;;;7.60;6.53;;;5.30;35.60;;;;;;10490541;28;20238;-78
2023/01/17 07:36:53;;;;;;;7.83;5.67;;;5.10;35.70;;;;;;10477997;28;20236;-78
2023/01/17 07:42:01;;;;;;;8.20;6.23;;;5.00;36.50;;;;;;10496787;28;20402;-79
2023/01/17 07:47:06;;;;;;;5.30;4.77;;;5.00;36.20;;;;;;10473410;28;20227;-79
2023/01/17 07:52:09;;;;;;;5.07;4.47;;;5.00;36.20;;;;;;10488012;28;20229;-78
2023/01/17 07:57:14;;;;;;;5.10;4.27;;;5.00;36.40;;;;;;10455524;28;20233;-78
2023/01/17 08:02:19;;;;;;;6.83;4.40;;;5.10;36.80;;;;;;10454680;28;20728;-78
2023/01/17 08:07:24;;;;;;;5.23;4.10;;;5.20;36.80;;;;;;10454110;28;20229;-78
2023/01/17 08:12:30;;;;;;;4.90;3.50;;;5.30;36.70;;;;;;10452833;28;20237;-78
2023/01/17 08:17:33;;;;;;;4.40;3.13;;;5.40;36.90;;;;;;10480759;28;20228;-78
2023/01/17 08:22:36;;;;;;;3.47;2.53;;;5.50;36.80;;;;;;10485404;28;20232;-79
2023/01/17 08:27:43;;;;;;;2.87;2.23;;;5.60;36.80;;;;;;10482842;28;20235;-80
2023/01/17 08:32:46;;;;;;;2.67;2.40;;;5.80;37.00;;;;;;10470715;28;20658;-80
2023/01/17 08:37:54;;;;;;;2.67;2.47;;;5.90;36.90;;;;;;10472995;28;20251;-80
2023/01/17 08:43:00;;;;;;;2.50;2.13;;;6.00;37.10;;;;;;10486770;28;20605;-80
2023/01/17 08:48:03;;;;;;;2.33;2.00;;;6.20;37.00;;;;;;10486289;28;20220;-80
2023/01/17 08:53:06;;;;;;;4.50;2.27;;;6.30;36.90;;;;;;10480382;28;20240;-81
2023/01/17 08:58:11;;;;;;;2.50;2.10;;;6.30;36.70;;;;;;10481254;28;20235;-81
2023/01/17 09:03:17;;;;;;;2.60;1.90;;;6.40;36.70;;;;;;10480525;28;20228;-80
2023/01/17 09:08:20;;;;;;;2.53;1.77;;;6.50;36.70;;;;;;10484202;28;20259;-81
2023/01/17 09:13:25;;;;;;;2.90;1.70;;;6.50;36.70;;;;;;10485616;28;20230;-81
2023/01/17 09:18:29;;;;;;;1.70;1.60;;;6.50;37.00;;;;;;10481210;28;20228;-81
2023/01/17 09:23:34;;;;;;;1.77;1.60;;;6.60;37.00;;;;;;10486641;28;20254;-81
2023/01/17 09:28:41;;;;;;;1.77;1.67;;;6.70;36.90;;;;;;10481609;28;20228;-81
2023/01/17 09:33:44;;;;;;;2.10;1.90;;;6.80;37.00;;;;;;10486393;28;20232;-81
2023/01/17 09:38:50;;;;;;;2.27;1.77;;;6.90;37.10;;;;;;10483917;28;20712;-81
2023/01/17 09:44:01;;;;;;;2.00;1.50;;;7.00;37.10;;;;;;10486116;28;20228;-81
2023/01/17 09:49:08;;;;;;;2.33;2.13;;;7.10;37.20;;;;;;10478262;28;20574;-81
2023/01/17 09:54:21;;;;;;;2.20;2.00;;;7.30;37.00;;;;;;10480989;28;20251;-81
2023/01/17 09:59:33;;;;;;;1.87;1.60;;;7.50;36.80;;;;;;10486974;28;20232;-81
2023/01/17 10:04:54;;;;;;;1.33;1.10;;;7.70;36.80;;;;;;10485620;28;20289;-81
2023/01/17 10:10:17;;;;;;;0.83;0.83;;;7.80;35.30;;;;;;10488971;28;20223;-81
2023/01/17 10:15:44;;;;;;;1.17;1.00;;;7.90;35.20;;;;;;10489570;28;20239;-81
2023/01/17 10:20:59;;;;;;;1.00;1.00;;;8.10;35.10;;;;;;10486189;28;20281;-82
2023/01/17 10:26:07;;;;;;;1.40;1.30;;;8.30;35.30;;;;;;10489614;28;20697;-82
2023/01/17 10:31:21;;;;;;;1.20;1.10;;;8.40;34.10;;;;;;10491810;28;20703;-82
2023/01/17 10:36:26;;;;;;;2.42;0.95;;;8.60;33.70;;;;;;10456578;28;1158305;-82
2023/01/17 10:41:33;;;;;;;0.80;0.80;;;8.70;34.20;;;;;;10502993;28;20235;-81
2023/01/17 10:46:41;;;;;;;1.37;1.10;;;8.80;33.90;;;;;;10499534;28;20220;-82
2023/01/17 10:52:00;;;;;;;1.73;1.10;;;9.00;34.00;;;;;;10499885;28;20395;-82
2023/01/17 10:57:03;;;;;;;1.20;1.10;;;9.00;33.20;;;;;;10494874;28;20236;-81
2023/01/17 11:02:18;;;;;;;1.00;0.70;;;9.10;34.10;;;;;;10496483;28;20235;-82
2023/01/17 11:07:23;;;;;;;0.93;0.90;;;9.10;32.60;;;;;;10500733;28;20258;-81
2023/01/17 11:12:30;;;;;;;1.10;0.70;;;9.20;33.10;;;;;;10499799;28;20910;-82
2023/01/17 11:17:37;;;;;;;0.83;0.70;;;9.20;32.60;;;;;;10498596;28;20235;-82
2023/01/17 11:22:42;;;;;;;0.80;0.80;;;9.20;32.20;;;;;;10496790;28;20229;-82
2023/01/17 11:27:58;;;;;;;1.10;0.73;;;9.20;32.70;;;;;;10501589;28;20242;-81
2023/01/17 11:33:07;;;;;;;0.70;0.70;;;9.30;31.10;;;;;;10500849;28;20228;-82
2023/01/17 11:38:18;;;;;;;0.97;0.70;;;9.30;31.10;;;;;;10496747;28;20765;-81
2023/01/17 11:43:23;;;;;;;0.80;0.80;;;9.30;31.10;;;;;;10497067;28;20242;-81
2023/01/17 11:48:34;;;;;;;1.00;1.00;;;9.40;31.90;;;;;;10498168;28;20220;-81
2023/01/17 11:53:40;;;;;;;0.80;0.80;;;9.30;31.20;;;;;;10497640;28;20235;-81
2023/01/17 11:58:44;;;;;;;1.03;0.80;;;9.40;31.60;;;;;;10497841;28;20243;-81
2023/01/17 12:04:19;;;;;;;0.80;0.80;;;9.40;32.00;;;;;;10496407;28;20281;-81
2023/01/17 12:09:27;;;;;;;1.07;0.90;;;9.40;30.80;;;;;;10495995;28;20251;-81
2023/01/17 12:14:41;;;;;;;1.70;0.80;;;9.40;30.90;;;;;;10498733;28;20224;-81
2023/01/17 12:19:59;;;;;;;1.17;0.90;;;9.40;30.50;;;;;;10494787;28;20247;-81
2023/01/17 12:25:23;;;;;;;0.93;0.90;;;9.40;30.30;;;;;;10492738;28;20800;-81
2023/01/17 12:31:06;;;;;;;1.87;1.30;;;9.40;30.70;;;;;;10492592;28;20227;-79
2023/01/17 12:36:31;;;;;;;1.30;1.10;;;9.40;30.80;;;;;;10482487;28;20228;-78
2023/01/17 12:41:44;;;;;;;2.63;1.20;;;9.40;31.30;;;;;;10482306;28;20236;-79
2023/01/17 12:46:59;;;;;;;1.70;1.37;;;9.40;31.50;;;;;;10475850;28;20220;-77
2023/01/17 12:52:11;;;;;;;1.40;1.30;;;9.40;31.40;;;;;;10479997;28;20231;-78
2023/01/17 12:57:17;;;;;;;1.03;1.03;;;9.40;31.50;;;;;;10482972;28;20220;-78
2023/01/17 13:02:30;;;;;;;1.50;1.20;;;9.40;31.60;;;;;;10475167;28;20672;-78
2023/01/17 13:07:44;;;;;;;2.87;1.90;;;9.30;31.20;;;;;;10483658;28;20227;-78
2023/01/17 13:12:48;;;;;;;2.07;1.87;;;9.20;31.40;;;;;;10482988;28;20243;-79
2023/01/17 13:17:58;;;;;;;1.77;1.50;;;9.10;32.00;;;;;;10482900;28;20841;-78
2023/01/17 13:23:09;;;;;;;0.90;0.90;;;9.10;31.80;;;;;;10470915;28;20909;-77
2023/01/17 13:28:26;;;;;;;7.60;3.93;;;9.20;31.70;;;;;;10479931;28;20232;-77
2023/01/17 13:33:41;;;;;;;1.80;1.30;;;9.20;31.70;;;;;;10484941;28;20225;-77
2023/01/17 13:39:11;;;;;;;1.20;1.10;;;9.20;31.50;;;;;;10485960;28;20236;-79
2023/01/17 13:44:21;;;;;;;1.57;1.20;;;9.20;31.10;;;;;;10478190;28;20685;-81
2023/01/17 13:49:34;;;;;;;1.00;1.00;;;9.10;32.70;;;;;;10477578;28;20786;-78
2023/01/17 13:54:46;;;;;;;1.73;1.50;;;9.20;31.60;;;;;;10472598;28;20701;-79
2023/01/17 13:59:51;;;;;;;1.60;1.50;;;9.20;34.30;;;;;;10464408;28;20238;-79
2023/01/17 14:05:12;;;;;;;1.23;1.00;;;9.40;33.60;;;;;;10464553;28;20306;-80
2023/01/17 14:10:39;;;;;;;1.27;1.17;;;9.50;31.80;;;;;;10470134;28;20224;-80
2023/01/17 14:15:49;;;;;;;2.40;2.13;;;9.50;31.50;;;;;;10466210;28;20239;-80
2023/01/17 14:21:06;;;;;;;1.70;1.20;;;9.50;31.60;;;;;;10472648;28;20236;-80
2023/01/17 14:26:36;;;;;;;2.17;1.33;;;9.50;31.10;;;;;;10472778;28;20968;-79
2023/01/17 14:31:40;;;;;;;1.60;1.50;;;9.50;30.70;;;;;;10466693;28;20762;-79
2023/01/17 14:36:43;;;;;;;1.57;1.47;;;9.40;31.70;;;;;;10474344;28;20837;-80
2023/01/17 14:41:52;;;;;;;1.27;1.17;;;9.30;31.70;;;;;;10477729;28;20240;-80
2023/01/17 14:46:56;;;;;;;1.33;1.10;;;9.20;31.50;;;;;;10484141;28;20527;-80
2023/01/17 14:52:01;;;;;;;1.40;1.30;;;9.20;31.80;;;;;;10493752;28;20240;-80
2023/01/17 14:57:27;;;;;;;2.80;2.60;;;9.10;31.60;;;;;;10494219;28;20224;-80
2023/01/17 15:02:32;;;;;;;2.30;2.10;;;9.00;31.10;;;;;;10491412;28;20757;-80
2023/01/17 15:07:36;;;;;;;2.17;1.93;;;8.90;31.80;;;;;;10496841;28;20239;-80
2023/01/17 15:12:45;;;;;;;1.40;1.30;;;8.80;31.70;;;;;;10490770;28;20236;-78
2023/01/17 15:17:52;;;;;;;1.30;1.20;;;8.80;34.20;;;;;;10488816;28;20224;-77
2023/01/17 15:22:55;;;;;;;1.80;1.30;;;8.90;34.40;;;;;;10486503;28;20228;-78
2023/01/17 15:28:00;;;;;;;1.87;1.27;;;9.00;34.40;;;;;;10487121;28;20224;-78
2023/01/17 15:33:03;;;;;;;1.80;1.70;;;9.30;33.50;;;;;;10491409;28;20254;-78
2023/01/17 15:38:13;;;;;;;1.60;1.50;;;9.40;33.00;;;;;;10491315;28;20236;-78
2023/01/17 15:43:21;;;;;;;1.03;1.00;;;9.50;32.80;;;;;;10490662;28;20228;-77
2023/01/17 15:48:37;;;;;;;1.60;1.30;;;9.40;34.90;;;;;;10489989;28;20221;-78
2023/01/17 15:53:42;;;;;;;1.33;0.97;;;9.50;34.50;;;;;;10486886;28;20704;-78
2023/01/17 15:58:48;;;;;;;1.40;1.30;;;9.70;33.20;;;;;;10486111;28;20231;-78
2023/01/17 16:03:54;;;;;;;3.23;1.27;;;9.70;32.40;;;;;;10486184;28;20252;-78
2023/01/17 16:08:57;;;;;;;0.93;0.93;;;9.60;32.30;;;;;;10485492;28;20285;-78
2023/01/17 16:14:01;;;;;;;1.10;1.00;;;9.60;32.50;;;;;;10487572;28;20228;-78
2023/01/17 16:19:06;;;;;;;1.57;1.47;;;9.50;31.90;;;;;;10489332;28;20761;-79
2023/01/17 16:24:11;;;;;;;1.50;1.40;;;9.40;31.80;;;;;;10480326;28;20243;-78
2023/01/17 16:29:16;;;;;;;1.27;1.17;;;9.30;31.70;;;;;;10483944;28;20220;-77
2023/01/17 16:34:22;;;;;;;1.20;1.20;;;9.10;31.50;;;;;;10484494;28;20240;-81
2023/01/17 16:39:28;;;;;;;1.30;1.20;;;9.00;31.70;;;;;;10482020;28;20228;-81
2023/01/17 16:44:33;;;;;;;1.20;1.00;;;8.80;31.70;;;;;;10487032;28;20235;-81
2023/01/17 16:49:38;;;;;;;1.30;1.30;;;8.70;31.70;;;;;;10481557;28;20224;-82
2023/01/17 16:54:41;;;;;;;1.87;1.33;;;8.50;31.90;;;;;;10486125;28;20795;-82
2023/01/17 16:59:46;;;;;;;1.90;1.60;;;8.40;32.00;;;;;;10488688;28;20229;-81
2023/01/17 17:04:53;;;;;;;2.80;2.60;;;8.30;31.80;;;;;;10483413;28;20251;-81
2023/01/17 17:09:58;;;;;;;2.37;2.17;;;8.20;32.00;;;;;;10484219;28;20587;-82
2023/01/17 17:15:04;;;;;;;2.37;2.00;;;8.10;32.10;;;;;;10488746;28;20224;-83
2023/01/17 17:20:09;;;;;;;2.23;1.90;;;8.00;32.20;;;;;;10483756;28;21105;-81
2023/01/17 17:25:14;;;;;;;2.13;1.90;;;8.00;32.50;;;;;;10486928;28;20220;-82
2023/01/17 17:30:19;;;;;;;2.40;1.70;;;7.90;32.70;;;;;;10482462;28;20266;-80
2023/01/17 17:35:23;;;;;;;1.90;1.70;;;7.90;32.60;;;;;;10477467;28;20235;-79
2023/01/17 17:40:26;;;;;;;1.90;1.70;;;7.90;32.80;;;;;;10478665;28;21040;-80
2023/01/17 17:45:33;;;;;;;2.30;2.10;;;7.80;32.70;;;;;;10478145;28;20708;-78
2023/01/17 17:50:36;;;;;;;2.07;1.87;;;7.80;32.70;;;;;;10482706;28;20635;-79
2023/01/17 17:55:40;;;;;;;2.00;1.80;;;7.80;32.80;;;;;;10475938;28;20239;-80
2023/01/17 18:00:45;;;;;;;3.00;1.90;;;7.80;33.00;;;;;;10477091;28;20232;-81
2023/01/17 18:05:50;;;;;;;2.47;2.27;;;7.70;32.90;;;;;;10477814;28;20220;-80
2023/01/17 18:10:58;;;;;;;2.00;1.70;;;7.70;33.00;;;;;;10473498;28;20965;-81
2023/01/17 18:16:07;;;;;;;1.53;1.43;;;7.60;32.90;;;;;;10477056;28;20247;-81
2023/01/17 18:21:13;;;;;;;2.37;1.80;;;7.60;32.90;;;;;;10480012;28;20301;-81
2023/01/17 18:26:17;;;;;;;3.50;2.70;;;7.60;32.90;;;;;;10483393;28;20228;-81
2023/01/17 18:31:25;;;;;;;3.70;3.40;;;7.60;32.90;;;;;;10487764;28;20317;-81
2023/01/17 18:36:31;;;;;;;2.70;2.50;;;7.60;32.90;;;;;;10489374;28;20274;-81
2023/01/17 18:41:34;;;;;;;3.60;3.30;;;7.60;33.10;;;;;;10483673;28;20229;-81
2023/01/17 18:46:40;;;;;;;4.03;3.67;;;7.60;33.40;;;;;;10482533;28;20753;-81
2023/01/17 18:51:46;;;;;;;3.37;3.07;;;7.50;33.40;;;;;;10488137;28;20232;-81
2023/01/17 18:56:54;;;;;;;2.47;2.27;;;7.60;33.40;;;;;;10493589;28;20311;-81
2023/01/17 19:02:01;;;;;;;2.30;2.10;;;7.50;34.10;;;;;;10490084;28;20700;-80
2023/01/17 19:07:04;;;;;;;2.03;1.83;;;7.60;33.40;;;;;;10494036;28;20224;-80
2023/01/17 19:12:09;;;;;;;2.10;1.73;;;7.50;33.40;;;;;;10490962;28;20232;-80
2023/01/17 19:17:13;;;;;;;2.13;1.87;;;7.50;33.50;;;;;;10486442;28;20234;-80
2023/01/17 19:22:16;;;;;;;2.23;2.03;;;7.50;33.70;;;;;;10482434;28;21260;-80
2023/01/17 19:27:20;;;;;;;2.20;1.80;;;7.50;33.70;;;;;;10485043;28;20236;-79
2023/01/17 19:32:25;;;;;;;3.00;2.80;;;7.50;33.70;;;;;;10484205;28;20239;-79
2023/01/17 19:37:28;;;;;;;4.57;4.17;;;7.50;33.90;;;;;;10484187;28;20595;-80
2023/01/17 19:42:31;;;;;;;7.23;6.63;;;7.50;33.80;;;;;;10487496;28;20238;-79
2023/01/17 19:47:36;;;;;;;6.77;6.17;;;7.40;33.70;;;;;;10486864;28;20240;-79
2023/01/17 19:52:40;;;;;;;6.37;5.67;;;7.40;33.80;;;;;;10485759;28;20229;-79
2023/01/17 19:57:44;;;;;;;7.13;5.93;;;7.40;33.90;;;;;;10488870;28;20243;-81
2023/01/17 20:02:50;;;;;;;5.63;4.63;;;7.40;34.10;;;;;;10485141;28;20258;-79
2023/01/17 20:07:53;;;;;;;5.37;4.87;;;7.40;34.30;;;;;;10485474;28;20315;-79
2023/01/17 20:12:57;;;;;;;5.80;5.30;;;7.30;34.20;;;;;;10482492;28;20239;-81
2023/01/17 20:18:06;;;;;;;4.67;4.27;;;7.30;34.40;;;;;;10482841;28;20849;-80
2023/01/17 20:23:12;;;;;;;4.90;4.50;;;7.20;34.60;;;;;;10482926;28;20235;-80
2023/01/17 20:28:15;;;;;;;5.37;4.87;;;7.20;34.60;;;;;;10482918;28;20441;-80
2023/01/17 20:33:22;;;;;;;8.40;7.50;;;7.20;34.80;;;;;;10481468;28;20239;-80
2023/01/17 20:38:28;;;;;;;7.60;6.57;;;7.20;35.10;;;;;;10482899;28;20228;-78
2023/01/17 20:43:33;;;;;;;8.47;6.90;;;7.10;35.60;;;;;;10486585;28;20235;-81
2023/01/17 20:48:46;;;;;;;6.53;5.93;;;7.10;35.10;;;;;;10483812;28;20224;-78
2023/01/17 20:53:53;;;;;;;6.50;5.90;;;7.20;35.60;;;;;;10483570;28;20239;-82
2023/01/17 20:58:56;;;;;;;6.27;5.67;;;7.10;35.30;;;;;;10481662;28;20223;-81
2023/01/17 21:04:02;;;;;;;5.13;4.63;;;7.10;35.10;;;;;;10489981;28;20270;-80
2023/01/17 21:09:06;;;;;;;4.90;4.40;;;7.10;35.40;;;;;;10478146;28;20299;-80
2023/01/17 21:14:09;;;;;;;4.83;4.40;;;7.00;35.20;;;;;;10482064;28;20238;-81
2023/01/17 21:19:16;;;;;;;3.53;3.23;;;7.00;35.30;;;;;;10483099;28;20244;-81
2023/01/17 21:24:22;;;;;;;4.03;3.63;;;6.90;35.50;;;;;;10481637;28;21823;-80
2023/01/17 21:29:27;;;;;;;3.27;2.97;;;6.90;35.50;;;;;;10480588;28;20224;-80
2023/01/17 21:34:33;;;;;;;3.33;3.03;;;6.90;35.50;;;;;;10480345;28;20810;-81
2023/01/17 21:39:38;;;;;;;3.30;2.97;;;6.90;35.70;;;;;;10482164;28;20232;-79
2023/01/17 21:44:42;;;;;;;4.03;3.60;;;6.90;35.50;;;;;;10484788;28;20236;-80
2023/01/17 21:49:47;;;;;;;3.80;3.33;;;6.90;36.30;;;;;;10483658;28;20235;-81
2023/01/17 22:00:14;;;;;;;4.53;3.30;;;6.90;35.30;;;;;;10482953;28;20244;-80
2023/01/17 22:05:19;;;;;;;3.60;3.30;;;6.80;35.40;;;;;;10481725;28;20236;-81
2023/01/17 22:10:22;;;;;;;4.03;3.30;;;6.70;35.40;;;;;;10480775;28;20240;-81
2023/01/17 22:15:25;;;;;;;3.63;3.33;;;6.60;35.30;;;;;;10482284;28;20739;-82
2023/01/17 22:20:30;;;;;;;4.13;3.33;;;6.60;35.50;;;;;;10485332;28;20602;-81
2023/01/17 22:25:33;;;;;;;5.67;5.17;;;6.60;35.90;;;;;;10482543;28;20235;-81
2023/01/17 22:30:36;;;;;;;5.50;4.70;;;6.50;35.70;;;;;;10484064;28;20228;-80
2023/01/17 22:35:43;;;;;;;5.40;4.87;;;6.50;35.80;;;;;;10477283;28;20240;-81
2023/01/17 22:40:49;;;;;;;6.40;5.70;;;6.50;36.20;;;;;;10480868;28;20998;-81
2023/01/17 22:45:58;;;;;;;10.50;6.87;;;6.50;36.00;;;;;;10482731;28;20236;-81
2023/01/17 22:51:06;;;;;;;23.17;7.07;;;6.50;36.70;;;;;;10478568;28;20216;-78
2023/01/17 22:56:12;;;;;;;9.73;6.70;;;6.50;36.20;;;;;;10484014;28;20231;-81
2023/01/17 23:01:17;;;;;;;7.97;6.93;;;6.50;36.10;;;;;;10485191;28;20236;-81
2023/01/17 23:06:24;;;;;;;6.33;5.57;;;6.40;36.10;;;;;;10486886;28;20252;-81
2023/01/17 23:11:39;;;;;;;8.87;6.27;;;6.40;36.40;;;;;;10486841;28;20659;-81
2023/01/17 23:22:18;;;;;;;7.47;6.20;;;6.30;36.20;;;;;;10487947;28;20224;-81
2023/01/17 23:32:46;;;;;;;5.70;5.20;;;6.20;36.10;;;;;;10488925;28;20232;-81
2023/01/17 23:48:38;;;;;;;9.17;5.00;;;5.80;35.90;;;;;;10488135;28;20665;-79
2023/01/17 23:53:44;;;;;;;21.53;5.47;;;5.70;35.90;;;;;;10495767;28;20220;-81
2023/01/17 23:58:47;;;;;;;15.77;5.20;;;5.50;36.30;;;;;;10482984;28;20232;-81
